Time;durP1;ratioP1;P1;durP2;ratioP2;P2;SDS_P1;SDS_P2;PMS_P1;PMS_P2;Temp;Humidity;BMP_temperature;BMP_pressure;BME280_temperature;BME280_humidity;BME280_pressure;Samples;Min_cycle;Max_cycle;Signal;HPM_P1;HPM_P2
2023/04/26 00:01:41;;;;;;;10.07;4.70;;;;;;;2.80;nan;101834.00;4992937;28;20462;-50
2023/04/26 00:04:07;;;;;;;9.93;4.35;;;;;;;2.82;nan;101840.97;4992803;28;20038;-44
2023/04/26 00:06:33;;;;;;;7.25;4.18;;;;;;;3.07;nan;101896.78;4992792;28;20054;-45
2023/04/26 00:08:59;;;;;;;12.95;3.70;;;;;;;2.54;nan;101819.72;4991606;28;20034;-43
2023/04/26 00:11:24;;;;;;;6.25;3.75;;;;;;;2.97;nan;101905.34;4992677;28;20394;-44
2023/04/26 00:13:50;;;;;;;13.75;4.28;;;;;;;2.80;nan;101886.00;4992553;28;20034;-44
2023/04/26 00:16:17;;;;;;;16.77;4.28;;;;;;;2.46;nan;101832.56;4992975;28;20065;-44
2023/04/26 00:18:43;;;;;;;11.32;3.78;;;;;;;2.43;nan;101836.84;4992814;28;20046;-43
2023/04/26 00:21:09;;;;;;;10.27;3.83;;;;;;;2.75;nan;101911.91;4992680;28;20080;-44
2023/04/26 00:23:35;;;;;;;6.38;3.97;;;;;;;2.72;nan;101904.06;4992531;28;20050;-43
2023/04/26 00:26:01;;;;;;;7.30;4.00;;;;;;;2.27;nan;101827.94;4991437;28;20038;-43
2023/04/26 00:28:28;;;;;;;7.18;3.47;;;;;;;2.63;nan;101903.91;4974907;28;20041;-44
2023/04/26 00:30:56;;;;;;;9.32;3.75;;;;;;;2.58;nan;101899.47;4991682;28;20481;-44
2023/04/26 00:33:22;;;;;;;7.90;3.72;;;;;;;2.54;nan;101906.34;4991240;28;20066;-42
2023/04/26 00:35:47;;;;;;;8.07;3.88;;;;;;;2.09;nan;101823.28;4974942;28;20054;-43
2023/04/26 00:38:12;;;;;;;8.48;4.28;;;;;;;2.45;nan;101894.94;4990931;28;20121;-44
2023/04/26 00:40:38;;;;;;;13.00;4.97;;;;;;;2.10;nan;101857.94;4992333;28;20092;-43
2023/04/26 00:43:04;;;;;;;8.73;4.10;;;;;;;1.95;nan;101834.28;4992426;28;20172;-43
2023/04/26 00:45:30;;;;;;;8.52;4.32;;;;;;;1.92;nan;101826.44;4992378;28;20516;-45
2023/04/26 00:47:56;;;;;;;13.43;4.47;;;;;;;2.14;nan;101873.59;4991017;28;20034;-45
2023/04/26 00:50:21;;;;;;;8.70;4.80;;;;;;;2.31;nan;101904.22;4992563;28;20042;-44
2023/04/26 00:52:47;;;;;;;8.07;4.13;;;;;;;2.25;nan;101905.81;4992350;28;20034;-43
2023/04/26 00:55:13;;;;;;;6.47;3.80;;;;;;;1.94;nan;101858.50;4991110;28;20030;-43
2023/04/26 00:57:38;;;;;;;9.00;4.72;;;;;;;2.01;nan;101868.16;4992268;28;20035;-43
2023/04/26 01:00:05;;;;;;;6.13;4.15;;;;;;;1.75;nan;101828.72;4990951;28;20050;-43
2023/04/26 01:02:30;;;;;;;9.05;4.15;;;;;;;2.04;nan;101879.44;4991612;28;20058;-44
2023/04/26 01:04:56;;;;;;;9.35;4.28;;;;;;;1.72;nan;101831.25;4990934;28;20478;-44
2023/04/26 01:07:22;;;;;;;10.35;5.15;;;;;;;2.04;nan;101889.84;4992247;28;20034;-44
2023/04/26 01:09:48;;;;;;;9.98;5.10;;;;;;;2.01;nan;101905.38;4991182;28;20397;-44
2023/04/26 01:12:13;;;;;;;8.18;4.85;;;;;;;1.91;nan;101884.38;4990968;28;20038;-44
2023/04/26 01:14:39;;;;;;;12.10;5.20;;;;;;;1.87;nan;101895.59;4992149;28;20034;-45
2023/04/26 01:17:07;;;;;;;11.23;5.10;;;;;;;1.94;nan;101894.84;4992044;28;20062;-43
2023/04/26 01:19:32;;;;;;;13.20;5.22;;;;;;;1.93;nan;101893.97;4991753;28;20506;-44
2023/04/26 01:21:57;;;;;;;14.70;5.57;;;;;;;1.90;nan;101891.31;4992105;28;20034;-45
2023/04/26 01:24:23;;;;;;;13.38;5.80;;;;;;;1.88;nan;101895.59;4992165;28;20054;-44
2023/04/26 01:26:48;;;;;;;13.85;5.05;;;;;;;1.44;nan;101826.34;4990609;28;20031;-44
2023/04/26 01:29:20;;;;;;;11.82;5.20;;;;;;;1.85;nan;101897.25;4990291;28;20084;-44
2023/04/26 01:31:46;;;;;;;9.13;4.50;;;;;;;1.84;nan;101898.13;4992348;28;20026;-44
2023/04/26 01:34:12;;;;;;;8.27;4.78;;;;;;;1.42;nan;101836.72;4992107;28;20178;-44
2023/04/26 01:36:37;;;;;;;10.70;4.93;;;;;;;1.78;nan;101908.38;4992099;28;20061;-44
2023/04/26 01:39:03;;;;;;;7.18;5.22;;;;;;;1.55;nan;101866.34;4991784;28;20123;-44
2023/04/26 01:41:28;;;;;;;7.07;4.93;;;;;;;1.25;nan;101814.75;4992332;28;20033;-43
2023/04/26 01:43:54;;;;;;;9.40;4.90;;;;;;;1.67;nan;101901.22;4994184;28;20157;-44
2023/04/26 01:46:20;;;;;;;11.43;4.90;;;;;;;1.52;nan;101869.78;4995297;28;20046;-44
2023/04/26 01:48:46;;;;;;;10.25;5.28;;;;;;;1.21;nan;101817.22;4995352;28;20047;-43
2023/04/26 01:51:11;;;;;;;12.50;6.15;;;;;;;1.64;nan;101892.50;4994256;28;20039;-43
2023/04/26 01:53:36;;;;;;;7.97;5.30;;;;;;;1.61;nan;101890.72;4994015;28;20085;-44
2023/04/26 01:56:02;;;;;;;11.02;5.72;;;;;;;1.60;nan;101885.50;4995347;28;20061;-43
2023/04/26 01:58:28;;;;;;;13.30;5.35;;;;;;;1.56;nan;101887.16;4995019;28;20038;-44
2023/04/26 02:00:54;;;;;;;11.15;4.95;;;;;;;1.51;nan;101922.53;4994749;28;20542;-43
2023/04/26 02:03:20;;;;;;;13.65;6.55;;;;;;;1.38;nan;101873.81;4995491;28;20117;-44
2023/04/26 02:05:45;;;;;;;10.23;5.07;;;;;;;1.45;nan;101890.38;4994929;28;20049;-44
2023/04/26 02:08:10;;;;;;;10.65;5.38;;;;;;;1.35;nan;101862.47;4995170;28;20038;-44
2023/04/26 02:10:36;;;;;;;10.38;5.68;;;;;;;1.47;nan;101886.09;4995157;28;20478;-44
2023/04/26 02:13:01;;;;;;;11.30;7.03;;;;;;;1.37;nan;101873.78;4993757;28;20558;-44
2023/04/26 02:15:26;;;;;;;9.52;5.25;;;;;;;1.23;nan;101851.84;4994939;28;20181;-44
2023/04/26 02:17:52;;;;;;;11.98;6.20;;;;;;;1.45;nan;101885.19;4995161;28;20041;-45
2023/04/26 02:20:18;;;;;;;11.00;5.55;;;;;;;1.06;nan;101812.59;4993714;28;20438;-43
2023/04/26 02:22:44;;;;;;;14.88;5.97;;;;;;;1.52;nan;101885.34;4994582;28;20370;-43
2023/04/26 02:25:10;;;;;;;14.02;5.90;;;;;;;1.50;nan;101884.44;4994591;28;20046;-43
2023/04/26 02:27:36;;;;;;;9.00;5.28;;;;;;;1.49;nan;101879.22;4994508;28;20062;-44
2023/04/26 02:30:01;;;;;;;16.27;6.07;;;;;;;1.44;nan;101863.56;4993372;28;20112;-44
2023/04/26 02:32:27;;;;;;;12.98;5.57;;;;;;;1.67;nan;101893.44;4994690;28;20026;-43
2023/04/26 02:34:52;;;;;;;11.13;5.72;;;;;;;1.75;nan;101891.03;4994850;28;20390;-43
2023/04/26 02:37:17;;;;;;;11.57;6.00;;;;;;;1.76;nan;101878.91;4994295;28;20058;-44
2023/04/26 02:39:43;;;;;;;17.83;6.55;;;;;;;1.87;nan;101898.19;4993265;28;20045;-43
2023/04/26 02:42:09;;;;;;;11.35;6.13;;;;;;;1.87;nan;101883.44;4994529;28;20117;-43
2023/04/26 02:44:35;;;;;;;11.93;6.45;;;;;;;1.76;nan;101863.31;4993191;28;20454;-43
2023/04/26 02:47:00;;;;;;;12.38;5.90;;;;;;;1.36;nan;101809.75;5009393;28;20030;-43
2023/04/26 02:49:26;;;;;;;10.95;5.43;;;;;;;1.76;nan;101874.59;4994210;28;20042;-44
2023/04/26 02:51:51;;;;;;;9.40;5.55;;;;;;;1.72;nan;101879.69;4994448;28;20058;-44
2023/04/26 02:54:17;;;;;;;9.18;5.53;;;;;;;1.67;nan;101885.66;4993582;28;20066;-44
2023/04/26 02:56:42;;;;;;;8.32;5.90;;;;;;;1.61;nan;101875.16;4994122;28;20034;-45
2023/04/26 02:59:07;;;;;;;10.35;6.07;;;;;;;1.56;nan;101871.59;4992600;28;20149;-44
2023/04/26 03:01:33;;;;;;;11.48;6.43;;;;;;;1.52;nan;101876.66;4994432;28;20037;-44
2023/04/26 03:03:58;;;;;;;11.18;6.63;;;;;;;1.48;nan;101862.78;4994221;28;20038;-43
2023/04/26 03:06:23;;;;;;;13.10;6.43;;;;;;;1.46;nan;101871.38;4993742;28;20042;-45
2023/04/26 03:08:49;;;;;;;12.55;6.90;;;;;;;1.43;nan;101871.31;4993897;28;20035;-44
2023/04/26 03:11:14;;;;;;;17.15;5.82;;;;;;;1.37;nan;101873.78;4992649;28;20035;-43
2023/04/26 03:13:40;;;;;;;12.50;5.93;;;;;;;1.43;nan;101874.75;4992162;28;20074;-43
2023/04/26 03:16:05;;;;;;;10.60;6.32;;;;;;;1.47;nan;101876.59;4993843;28;20038;-43
2023/04/26 03:18:31;;;;;;;9.35;6.00;;;;;;;1.08;nan;101796.22;4993903;28;20042;-45
2023/04/26 03:20:56;;;;;;;11.73;5.93;;;;;;;1.53;nan;101865.47;4994015;28;20503;-45
2023/04/26 03:23:24;;;;;;;15.98;6.22;;;;;;;1.55;nan;101866.34;4993617;28;20053;-47
2023/04/26 03:25:50;;;;;;;13.82;6.63;;;;;;;1.56;nan;101869.00;4993713;28;20038;-44
2023/04/26 03:28:16;;;;;;;18.33;6.38;;;;;;;1.53;nan;101868.94;4994064;28;20110;-45
2023/04/26 03:30:41;;;;;;;10.68;6.07;;;;;;;1.51;nan;101864.56;4993769;28;20121;-44
2023/04/26 03:33:06;;;;;;;12.70;6.90;;;;;;;0.99;nan;101784.78;4993463;28;20034;-43
2023/04/26 03:35:32;;;;;;;10.23;6.63;;;;;;;0.99;nan;101796.00;4992176;28;20145;-44
2023/04/26 03:37:57;;;;;;;11.02;7.10;;;;;;;1.24;nan;101844.09;4993343;28;20474;-46
2023/04/26 03:40:23;;;;;;;13.82;6.50;;;;;;;1.19;nan;101840.53;4992158;28;20088;-45
2023/04/26 03:42:48;;;;;;;13.60;6.95;;;;;;;1.30;nan;101861.50;5008368;28;20378;-46
2023/04/26 03:45:13;;;;;;;13.15;6.55;;;;;;;1.29;nan;101864.94;4992318;28;20104;-42
2023/04/26 03:47:39;;;;;;;11.32;6.78;;;;;;;1.25;nan;101865.72;4993435;28;20038;-44
2023/04/26 03:50:05;;;;;;;14.73;6.93;;;;;;;1.21;nan;101858.72;4975667;28;20105;-43
2023/04/26 03:52:30;;;;;;;13.07;6.68;;;;;;;1.16;nan;101863.81;4993301;28;20035;-44
2023/04/26 03:54:56;;;;;;;11.95;7.22;;;;;;;0.70;nan;101766.00;4992253;28;20034;-43
2023/04/26 03:57:21;;;;;;;12.82;7.28;;;;;;;1.04;nan;101830.72;4993004;28;20031;-43
2023/04/26 03:59:46;;;;;;;13.75;6.63;;;;;;;1.11;nan;101842.06;4993232;28;20034;-44
2023/04/26 04:02:12;;;;;;;16.02;7.60;;;;;;;1.12;nan;101844.72;4991960;28;20041;-43
2023/04/26 04:04:37;;;;;;;15.30;7.32;;;;;;;1.14;nan;101843.03;4992839;28;20064;-44
2023/04/26 04:07:02;;;;;;;11.20;7.05;;;;;;;1.15;nan;101838.72;4992458;28;20034;-44
2023/04/26 04:09:28;;;;;;;11.23;7.53;;;;;;;1.27;nan;101838.09;4991631;28;20093;-44
2023/04/26 04:11:53;;;;;;;14.23;7.28;;;;;;;1.34;nan;101848.66;4992800;28;20042;-43
2023/04/26 04:14:19;;;;;;;17.27;7.72;;;;;;;1.37;nan;101847.84;4993276;28;20062;-44
2023/04/26 04:16:44;;;;;;;14.13;7.50;;;;;;;1.37;nan;101856.47;4991750;28;20379;-43
2023/04/26 04:19:09;;;;;;;11.13;6.95;;;;;;;1.38;nan;101857.34;4992722;28;20401;-43
2023/04/26 04:21:35;;;;;;;16.40;7.82;;;;;;;1.37;nan;101858.22;4993036;28;20490;-44
2023/04/26 04:24:00;;;;;;;14.85;7.53;;;;;;;1.33;nan;101856.38;4992738;28;20038;-43
2023/04/26 04:26:27;;;;;;;16.20;7.82;;;;;;;1.26;nan;101854.50;4992767;28;20092;-43
2023/04/26 04:28:54;;;;;;;14.90;7.32;;;;;;;1.21;nan;101841.44;4991093;28;20038;-44
2023/04/26 04:31:19;;;;;;;14.85;7.90;;;;;;;1.28;nan;101861.50;4992846;28;20057;-43
2023/04/26 04:33:44;;;;;;;15.88;8.85;;;;;;;1.28;nan;101877.06;4991469;28;20104;-43
2023/04/26 04:36:10;;;;;;;16.83;8.35;;;;;;;1.21;nan;101858.72;4991295;28;20065;-42
2023/04/26 04:38:35;;;;;;;12.93;7.85;;;;;;;1.27;nan;101864.91;4991301;28;20061;-43
2023/04/26 04:41:00;;;;;;;16.55;8.55;;;;;;;1.25;nan;101866.63;4992436;28;20077;-42
2023/04/26 04:43:26;;;;;;;15.20;8.98;;;;;;;1.26;nan;101883.91;4992401;28;20474;-43
2023/04/26 04:45:52;;;;;;;16.55;9.05;;;;;;;1.24;nan;101866.56;4992659;28;20452;-43
2023/04/26 04:48:19;;;;;;;14.57;8.50;;;;;;;0.98;nan;101821.91;4992650;28;20042;-42
2023/04/26 04:50:44;;;;;;;17.25;9.52;;;;;;;1.29;nan;101864.94;4992592;28;20038;-43
2023/04/26 04:53:11;;;;;;;19.00;9.30;;;;;;;1.28;nan;101873.59;4992331;28;20042;-42
2023/04/26 04:55:37;;;;;;;17.58;9.68;;;;;;;0.04;nan;101656.59;4992654;28;20034;-43
2023/04/26 04:58:02;;;;;;;14.88;8.93;;;;;;;1.04;nan;101806.50;4991420;28;20089;-43
2023/04/26 05:00:28;;;;;;;13.13;8.55;;;;;;;1.41;nan;101867.78;4991261;28;20053;-43
2023/04/26 05:02:54;;;;;;;18.00;10.10;;;;;;;1.36;nan;101864.25;4991308;28;20030;-44
2023/04/26 05:05:19;;;;;;;15.80;10.13;;;;;;;1.42;nan;101865.25;4989890;28;20671;-42
2023/04/26 05:07:44;;;;;;;20.55;10.02;;;;;;;1.55;nan;101874.13;4987587;28;20497;-43
2023/04/26 05:10:10;;;;;;;15.20;8.85;;;;;;;1.25;nan;101829.44;4990494;28;20046;-43
2023/04/26 05:12:36;;;;;;;19.73;9.10;;;;;;;1.66;nan;101860.53;4991553;28;20034;-44
2023/04/26 05:15:01;;;;;;;15.07;9.43;;;;;;;1.81;nan;101866.91;4987890;28;20471;-44
2023/04/26 05:17:27;;;;;;;15.73;9.90;;;;;;;1.93;nan;101862.78;4983826;28;20417;-43
2023/04/26 05:19:52;;;;;;;19.55;9.40;;;;;;;2.03;nan;101864.72;4975273;28;20044;-43
2023/04/26 05:22:20;;;;;;;18.17;9.82;;;;;;;2.15;nan;101854.56;4975309;28;20035;-43
2023/04/26 05:24:46;;;;;;;16.85;9.38;;;;;;;2.30;nan;101861.75;4983806;28;20042;-43
2023/04/26 05:27:11;;;;;;;15.50;8.57;;;;;;;2.03;nan;101793.75;4994628;28;20034;-42
2023/04/26 05:29:37;;;;;;;14.45;10.10;;;;;;;2.57;nan;101857.00;4992974;28;20042;-42
2023/04/26 05:32:02;;;;;;;19.08;9.00;;;;;;;2.79;nan;101868.63;4992859;28;20038;-42
2023/04/26 05:34:28;;;;;;;16.50;10.90;;;;;;;2.99;nan;101869.81;4982080;28;20039;-43
2023/04/26 05:36:53;;;;;;;15.60;9.60;;;;;;;3.21;nan;101866.66;4991040;28;20047;-45
2023/04/26 05:39:20;;;;;;;16.50;10.75;;;;;;;3.47;nan;101866.13;4993787;28;20030;-44
2023/04/26 05:41:45;;;;;;;21.25;10.77;;;;;;;3.71;nan;101869.03;4991965;28;20765;-44
2023/04/26 05:44:11;;;;;;;17.30;10.13;;;;;;;3.96;nan;101873.69;4993574;28;20039;-43
2023/04/26 05:46:37;;;;;;;15.27;9.98;;;;;;;4.16;nan;101879.09;4992385;28;20034;-44
2023/04/26 05:49:02;;;;;;;15.35;9.23;;;;;;;4.33;nan;101877.50;4992237;28;20042;-44
2023/04/26 05:51:27;;;;;;;14.23;9.77;;;;;;;4.33;nan;101875.78;4990242;28;20042;-44
2023/04/26 05:53:53;;;;;;;14.07;8.10;;;;;;;4.36;nan;101856.69;4995060;28;20030;-44
2023/04/26 05:56:18;;;;;;;13.32;9.15;;;;;;;4.26;nan;101832.28;4994405;28;20046;-44
2023/04/26 05:58:44;;;;;;;11.07;8.13;;;;;;;4.63;nan;101872.59;4994233;28;20077;-44
2023/04/26 06:01:09;;;;;;;12.25;8.05;;;;;;;4.80;nan;101881.41;4994652;28;20094;-44
2023/04/26 06:03:34;;;;;;;15.02;8.27;;;;;;;4.56;nan;101816.03;4994118;28;20425;-44
2023/04/26 06:06:00;;;;;;;18.05;8.10;;;;;;;5.03;nan;101878.97;4994048;28;20466;-43
2023/04/26 06:08:27;;;;;;;14.70;8.40;;;;;;;5.15;nan;101878.16;4995420;28;20525;-43
2023/04/26 06:10:52;;;;;;;13.75;7.22;;;;;;;5.25;nan;101885.19;4994846;28;20397;-44
2023/04/26 06:13:17;;;;;;;7.85;6.38;;;;;;;5.22;nan;101877.34;4993916;28;20046;-43
2023/04/26 06:15:43;;;;;;;8.35;5.95;;;;;;;5.45;nan;101912.28;4993981;28;20066;-43
2023/04/26 06:18:08;;;;;;;10.02;6.07;;;;;;;5.48;nan;101914.94;4995024;28;20087;-44
2023/04/26 06:20:33;;;;;;;10.02;5.53;;;;;;;5.58;nan;101933.25;4994726;28;20041;-44
2023/04/26 06:22:59;;;;;;;8.68;5.72;;;;;;;5.26;nan;101869.53;4993788;28;20069;-44
2023/04/26 06:25:24;;;;;;;9.77;5.30;;;;;;;5.32;nan;101871.31;4993499;28;20034;-45
2023/04/26 06:27:50;;;;;;;9.68;4.93;;;;;;;5.66;nan;101922.88;4992894;28;20470;-43
2023/04/26 06:30:16;;;;;;;7.65;4.68;;;;;;;5.77;nan;101925.50;4993281;28;20038;-44
2023/04/26 06:32:41;;;;;;;8.63;4.43;;;;;;;5.89;nan;101943.91;4995036;28;20474;-43
2023/04/26 06:35:07;;;;;;;7.05;4.82;;;;;;;5.63;nan;101881.06;4994576;28;20064;-44
2023/04/26 06:37:33;;;;;;;8.63;4.68;;;;;;;5.72;nan;101877.59;4993340;28;20049;-44
2023/04/26 06:39:58;;;;;;;9.55;5.10;;;;;;;6.19;nan;101942.25;4993207;28;20042;-45
2023/04/26 06:42:23;;;;;;;6.55;3.70;;;;;;;6.29;nan;101939.66;4994243;28;20385;-43
2023/04/26 06:44:49;;;;;;;6.22;3.95;;;;;;;6.33;nan;101930.97;4994508;28;20382;-43
2023/04/26 06:47:14;;;;;;;8.13;4.13;;;;;;;6.58;nan;101940.59;4994244;28;20038;-44
2023/04/26 06:49:40;;;;;;;6.03;4.32;;;;;;;6.73;nan;101938.00;4977166;28;20031;-44
2023/04/26 06:52:05;;;;;;;6.60;3.65;;;;;;;6.83;nan;101938.88;4994250;28;20389;-44
2023/04/26 06:54:32;;;;;;;8.25;3.70;;;;;;;6.67;nan;101899.63;4994230;28;20401;-44
2023/04/26 06:56:57;;;;;;;7.00;3.25;;;;;;;6.88;nan;101940.63;4993457;28;20089;-45
2023/04/26 06:59:23;;;;;;;5.55;3.50;;;;;;;6.87;nan;101944.13;4993144;28;20042;-45
2023/04/26 07:01:48;;;;;;;6.43;3.00;;;;;;;6.57;nan;101928.38;4992983;28;20038;-43
2023/04/26 07:04:15;;;;;;;6.95;2.95;;;;;;;6.47;nan;101955.41;4994380;28;20394;-44
2023/04/26 07:06:41;;;;;;;5.25;2.17;;;;;;;6.30;nan;101954.50;4994210;28;20113;-44
2023/04/26 07:09:07;;;;;;;3.20;2.40;;;;;;;6.26;nan;101956.22;4992859;28;20460;-45
2023/04/26 07:11:33;;;;;;;3.22;2.05;;;;;;;6.30;nan;101957.13;4992880;28;20425;-43
2023/04/26 07:13:58;;;;;;;5.50;2.55;;;;;;;6.26;nan;101952.72;4976780;28;20041;-43
2023/04/26 07:16:25;;;;;;;2.60;1.40;;;;;;;6.31;nan;101958.84;4994354;28;20065;-43
2023/04/26 07:18:51;;;;;;;3.35;1.55;;;;;;;6.45;nan;101951.94;4992867;28;20045;-44
2023/04/26 07:21:17;;;;;;;3.17;1.83;;;;;;;6.59;nan;101953.69;4992836;28;20068;-44
2023/04/26 07:23:43;;;;;;;4.75;1.40;;;;;;;6.62;nan;101966.78;4992743;28;20437;-47
2023/04/26 07:26:11;;;;;;;1.95;1.75;;;;;;;6.76;nan;101967.66;4992803;28;20037;-44
2023/04/26 07:28:37;;;;;;;3.38;1.63;;;;;;;6.89;nan;101946.75;4992886;28;20034;-43
2023/04/26 07:31:03;;;;;;;2.20;1.50;;;;;;;7.13;nan;101960.69;4991159;28;20034;-43
2023/04/26 07:33:28;;;;;;;2.25;1.77;;;;;;;7.30;nan;101958.94;4990406;28;20034;-44
2023/04/26 07:35:58;;;;;;;6.78;1.85;;;;;;;7.41;nan;101956.31;4991735;28;20176;-43
2023/04/26 07:38:24;;;;;;;2.53;1.40;;;;;;;7.47;nan;101964.16;4991027;28;20026;-43
2023/04/26 07:40:50;;;;;;;2.95;1.45;;;;;;;7.54;nan;101947.53;4991748;28;20045;-44
2023/04/26 07:43:16;;;;;;;4.18;1.50;;;;;;;7.44;nan;101922.25;4990906;28;20034;-44
2023/04/26 07:45:42;;;;;;;2.35;1.33;;;;;;;7.54;nan;101910.84;4992313;28;20118;-42
2023/04/26 07:48:07;;;;;;;3.85;1.33;;;;;;;8.02;nan;101972.72;4990643;28;20140;-43
2023/04/26 07:50:33;;;;;;;1.80;1.17;;;;;;;8.11;nan;101979.69;4991992;28;20030;-43
2023/04/26 07:52:58;;;;;;;2.35;1.00;;;;;;;7.94;nan;101940.41;4990485;28;20062;-43
2023/04/26 07:55:24;;;;;;;6.50;1.58;;;;;;;8.24;nan;101979.63;4992188;28;20093;-44
2023/04/26 07:57:49;;;;;;;3.72;1.30;;;;;;;8.37;nan;101978.72;4991709;28;20135;-45
2023/04/26 08:00:16;;;;;;;2.80;1.30;;;;;;;8.60;nan;101981.22;4990198;28;20031;-40
2023/04/26 08:02:41;;;;;;;4.35;1.42;;;;;;;8.71;nan;101987.25;4991856;28;20367;-40
2023/04/26 08:05:07;;;;;;;5.10;1.20;;;;;;;8.80;nan;101995.06;4990503;28;20033;-39
2023/04/26 08:07:33;;;;;;;2.25;1.20;;;;;;;8.59;nan;101940.09;4990447;28;20647;-40
2023/04/26 08:09:58;;;;;;;3.10;1.10;;;;;;;9.18;nan;102001.78;4992025;28;20089;-45
2023/04/26 08:12:23;;;;;;;2.10;1.83;;;;;;;8.96;nan;101964.34;4991746;28;20130;-40
2023/04/26 08:14:49;;;;;;;2.22;1.38;;;;;;;9.24;nan;102009.63;4991718;28;20066;-39
2023/04/26 08:17:14;;;;;;;4.03;1.02;;;;;;;9.12;nan;102005.34;4991432;28;20134;-40
2023/04/26 08:19:40;;;;;;;1.90;1.13;;;;;;;9.41;nan;102007.72;4991589;28;20050;-39
2023/04/26 08:22:06;;;;;;;2.30;1.20;;;;;;;9.69;nan;102003.06;4991779;28;20465;-40
2023/04/26 08:24:31;;;;;;;3.17;1.30;;;;;;;9.93;nan;101955.44;4991318;28;20398;-40
2023/04/26 08:26:58;;;;;;;2.25;1.42;;;;;;;10.34;nan;101963.72;4990101;28;20093;-40
2023/04/26 08:29:23;;;;;;;7.28;1.40;;;;;;;10.54;nan;101992.41;4990254;28;20035;-40
2023/04/26 08:31:49;;;;;;;3.30;1.20;;;;;;;10.95;nan;101997.06;4990020;28;20528;-41
2023/04/26 08:34:14;;;;;;;5.90;1.48;;;;;;;11.13;nan;102002.03;4991290;28;20049;-40
2023/04/26 08:36:44;;;;;;;2.55;1.30;;;;;;;11.42;nan;101999.78;4991037;28;20101;-40
2023/04/26 08:39:11;;;;;;;3.88;1.10;;;;;;;10.97;nan;101968.94;4990948;28;20092;-41
2023/04/26 08:41:42;;;;;;;4.28;1.30;;;;;;;11.07;nan;102003.00;4973981;28;20034;-41
2023/04/26 08:44:07;;;;;;;4.90;1.88;;;;;;;10.81;nan;102009.56;4990113;28;20042;-40
2023/04/26 08:47:05;;;;;;;2.03;0.88;;;;;;;10.38;nan;102004.03;4989956;28;20034;-40
2023/04/26 08:49:46;;;;;;;3.40;1.10;;;;;;;9.70;nan;101996.91;4988488;28;20468;-42
2023/04/26 08:52:13;;;;;;;3.13;0.98;;;;;;;9.42;nan;102006.84;4992951;28;20130;-40
2023/04/26 08:54:39;;;;;;;4.88;1.08;;;;;;;9.05;nan;101995.75;4993858;28;20410;-41
2023/04/26 08:57:09;;;;;;;2.92;1.27;;;;;;;8.52;nan;101945.41;4994900;28;20034;-42
2023/04/26 08:59:38;;;;;;;5.10;1.40;;;;;;;8.77;nan;101997.72;4994646;28;20093;-40
2023/04/26 09:02:04;;;;;;;6.15;1.70;;;;;;;8.82;nan;102008.16;4994493;28;20054;-40
2023/04/26 09:04:33;;;;;;;4.28;1.52;;;;;;;8.38;nan;101951.59;4993884;28;20114;-41
2023/04/26 09:07:03;;;;;;;3.10;1.50;;;;;;;8.03;nan;101942.09;4994909;28;20113;-42
2023/04/26 09:09:38;;;;;;;3.45;1.50;;;;;;;7.94;nan;101982.34;4994772;28;20030;-40
2023/04/26 09:12:03;;;;;;;4.22;1.60;;;;;;;7.56;nan;101951.00;4977640;28;20076;-41
2023/04/26 09:14:29;;;;;;;4.00;1.70;;;;;;;7.80;nan;102000.75;4994576;28;20042;-41
2023/04/26 09:16:55;;;;;;;2.92;1.77;;;;;;;7.83;nan;101997.25;4993355;28;20620;-41
2023/04/26 09:19:43;;;;;;;5.95;1.30;;;;;;;7.69;nan;101962.34;4994612;28;20457;-41
2023/04/26 09:22:08;;;;;;;3.15;1.83;;;;;;;7.83;nan;101987.63;4993471;28;20031;-41
2023/04/26 09:24:50;;;;;;;2.17;1.60;;;;;;;8.05;nan;101984.94;4993322;28;20049;-41
2023/04/26 09:27:16;;;;;;;1.75;1.23;;;;;;;8.30;nan;101997.09;4994585;28;20022;-41
2023/04/26 09:29:59;;;;;;;2.85;1.13;;;;;;;8.14;nan;101940.34;4977029;28;20034;-41
2023/04/26 09:32:25;;;;;;;3.28;1.35;;;;;;;7.52;nan;101794.72;4994270;28;20413;-41
2023/04/26 09:34:51;;;;;;;3.90;1.42;;;;;;;8.93;nan;102001.13;4992950;28;20038;-40
2023/04/26 09:37:18;;;;;;;4.25;1.83;;;;;;;9.11;nan;102005.38;4993991;28;20081;-42
2023/04/26 09:39:43;;;;;;;4.53;1.42;;;;;;;9.03;nan;101932.75;4994194;28;20494;-40
2023/04/26 09:42:10;;;;;;;3.35;1.48;;;;;;;9.48;nan;101983.13;4994384;28;20036;-41
2023/04/26 09:44:35;;;;;;;2.53;1.35;;;;;;;9.68;nan;101999.56;4976066;28;20058;-42
2023/04/26 09:47:04;;;;;;;3.53;1.45;;;;;;;9.82;nan;101987.13;4994182;28;20065;-41
2023/04/26 09:49:44;;;;;;;3.83;1.50;;;;;;;9.72;nan;101938.16;4993710;28;20140;-40
2023/04/26 09:52:09;;;;;;;3.03;1.42;;;;;;;9.53;nan;101903.34;4992971;28;20081;-40
2023/04/26 09:54:42;;;;;;;3.78;1.27;;;;;;;9.94;nan;101944.94;4994094;28;20389;-41
2023/04/26 09:57:09;;;;;;;4.18;1.50;;;;;;;10.62;nan;101994.03;4993868;28;20043;-40
2023/04/26 09:59:42;;;;;;;5.03;1.55;;;;;;;10.87;nan;102012.97;4994008;28;20030;-40
2023/04/26 10:02:13;;;;;;;2.72;1.05;;;;;;;10.85;nan;101925.22;4992611;28;20034;-41
2023/04/26 10:04:38;;;;;;;3.95;1.25;;;;;;;11.45;nan;101965.44;4987851;28;20065;-42
2023/04/26 10:07:04;;;;;;;1.65;1.30;;;;;;;12.06;nan;101977.50;4987727;28;20061;-41
2023/04/26 10:09:30;;;;;;;2.38;1.00;;;;;;;12.04;nan;101942.34;4991515;28;20053;-41
2023/04/26 10:11:57;;;;;;;4.45;1.20;;;;;;;12.51;nan;101983.56;4989621;28;20038;-41
2023/04/26 10:14:22;;;;;;;1.95;0.90;;;;;;;13.04;nan;101947.97;4991690;28;20122;-41
2023/04/26 10:16:51;;;;;;;1.48;0.98;;;;;;;13.95;nan;101946.41;4991567;28;20117;-42
2023/04/26 10:19:17;;;;;;;0.85;0.60;;;;;;;14.02;nan;101983.25;4993400;28;20034;-42
2023/04/26 10:21:43;;;;;;;38.75;27.95;;;;;;;14.61;nan;101936.47;4976124;28;20038;-42
2023/04/26 10:24:09;;;;;;;2.47;1.10;;;;;;;15.64;nan;101980.72;4975790;28;20069;-45
2023/04/26 10:26:56;;;;;;;2.85;1.15;;;;;;;15.83;nan;101935.81;4993084;28;20524;-43
2023/04/26 10:29:22;;;;;;;3.13;1.35;;;;;;;15.87;nan;101971.09;4992188;28;20034;-41
2023/04/26 10:32:00;;;;;;;3.15;1.10;;;;;;;16.40;nan;101987.69;4991751;28;20030;-42
2023/04/26 10:34:25;;;;;;;3.47;1.02;;;;;;;16.61;nan;101987.75;4993685;28;20073;-42
2023/04/26 10:37:10;;;;;;;2.70;1.00;;;;;;;16.86;nan;101985.00;4993086;28;20050;-46
2023/04/26 10:39:37;;;;;;;4.55;1.10;;;;;;;16.70;nan;101967.91;4992889;28;20497;-40
2023/04/26 10:42:24;;;;;;;3.92;1.00;;;;;;;15.62;nan;101973.75;4992092;28;20030;-42
2023/04/26 10:44:59;;;;;;;2.05;0.98;;;;;;;14.84;nan;101980.78;4993653;28;20041;-42
2023/04/26 10:47:27;;;;;;;1.35;0.70;;;;;;;13.45;nan;101980.44;4992004;28;20161;-42
2023/04/26 10:50:02;;;;;;;1.45;0.88;;;;;;;12.63;nan;101983.31;4993166;28;20045;-41
2023/04/26 10:52:28;;;;;;;2.85;0.90;;;;;;;11.72;nan;101961.47;4993379;28;20489;-42
2023/04/26 10:54:59;;;;;;;1.83;0.70;;;;;;;11.34;nan;101941.06;4992959;28;20034;-43
2023/04/26 10:57:51;;;;;;;4.13;0.80;;;;;;;10.99;nan;101978.56;4991820;28;20042;-40
2023/04/26 11:00:19;;;;;;;;;;;;;;;10.84;nan;101975.28;5007978;28;20033;-41
2023/04/26 11:02:51;;;;;;;1.98;0.90;;;;;;;10.81;nan;101981.47;4992630;28;20093;-41
2023/04/26 11:05:41;;;;;;;5.40;0.98;;;;;;;10.61;nan;101970.38;4992555;28;20031;-41
2023/04/26 11:08:30;;;;;;;6.50;2.10;;;;;;;10.63;nan;101964.19;4992724;28;20038;-40
2023/04/26 11:11:01;;;;;;;2.72;1.30;;;;;;;10.83;nan;101986.72;5007495;28;20532;-43
2023/04/26 11:13:34;;;;;;;3.53;1.20;;;;;;;11.19;nan;101955.38;4992683;28;20065;-41
2023/04/26 11:16:04;;;;;;;2.38;0.95;;;;;;;11.54;nan;101953.88;4992059;28;20038;-40
2023/04/26 11:18:34;;;;;;;2.53;1.30;;;;;;;12.75;nan;101956.59;4992246;28;20034;-41
2023/04/26 11:20:59;;;;;;;3.83;1.33;;;;;;;12.46;nan;101896.53;4992504;28;20046;-40
2023/04/26 11:23:27;;;;;;;1.90;0.82;;;;;;;13.51;nan;101953.78;4992285;28;20105;-44
2023/04/26 11:25:53;;;;;;;3.35;1.00;;;;;;;13.78;nan;101959.22;4991896;28;20026;-44
2023/04/26 11:28:21;;;;;;;4.75;1.00;;;;;;;13.97;nan;101952.53;4990844;28;20042;-46
2023/04/26 11:30:50;;;;;;;2.47;1.50;;;;;;;13.98;nan;101960.41;4990204;28;20038;-44
2023/04/26 11:33:21;;;;;;;3.42;1.27;;;;;;;13.74;nan;101949.66;4988860;28;20074;-45
2023/04/26 11:35:46;;;;;;;4.32;1.23;;;;;;;13.63;nan;101882.94;4987545;28;20051;-46
2023/04/26 11:38:12;;;;;;;2.70;1.15;;;;;;;14.37;nan;101953.09;4989326;28;20136;-46
2023/04/26 11:40:37;;;;;;;3.10;0.93;;;;;;;14.02;nan;101885.28;4990788;28;20046;-46
2023/04/26 11:43:04;;;;;;;2.85;1.15;;;;;;;14.00;nan;101949.78;4991311;28;20038;-46